To NAV CANADA Home Page Login to a new session Search on AWWS site Feedback and Comments Disclaimer Vers la page française équivalente Tips FAQ What's new on the site To the Forecasts and Observations / NOTAM section To "File a Flight Plan" website Publications and other links Update of the User's profile FIC Telephone Numbers My Weather Data Folder Route Weather Data Regional Weather Data Local Weather Data To the Forecasts and Observations / NOTAM section
Request Generated 12/04/2016 at 22:20:53 UTC . Weather information available at that time is displayed.

METAR/TAF

COMOX/BC    

METAR CYQQ 042200Z 34011KT 20SM FEW040 FEW180 SCT210 06/M01 A3006 RMK SC0AC0CI4 SLP182=
METAR CYQQ 042100Z 36013KT 20SM FEW040 FEW180 FEW210 06/M01 A3006 RMK SC0AC0CI2 SLP181=
METAR CYQQ 042000Z 34016KT 20SM FEW040 FEW180 FEW210 06/M00 A3006 RMK SC0AC1CI0 SLP181=

TAF CYQQ 041739Z 0418/0518 34015G25KT P6SM FEW030 SCT200
FM042300 34010KT P6SM BKN200
FM050200 VRB03KT P6SM FEW015 SCT100 OVC200
FM050700 VRB03KT P6SM SCT015 BKN040 TEMPO 0510/0514 P6SM -SHRA
BKN015
FM051400 VRB03KT P6SM -SHRA OVC025 TEMPO 0514/0518 OVC012
RMK NXT FCST BY 050000Z=
Your time UTC time
Weather data provided by Environment Canada and NAV CANADA